メインページ
METAR-TAF:

METAR-TAF

空港 :

十勝帯広, 日本

帯広駐屯地

緯度: 42-54N, 経度: 143-10E, 海抜: 84m

現時点の気象観測

当レポートは22時間37分前の01:10(UTC)に作成
西/北西の風 11kt、最大21ktの突風を伴う
気温 -4°C
湿度 35%
気圧 1008 hPa
視程10km以上
高度4000ftの雲はほとんどない

METAR: RJCT 180110Z 30011G21KT 9999 FEW040 M04/M17 Q1008 RMK 1CU040 A2978

時間: 08:47 (23:47 UTC)


TAF: 見つかりません

4,000以上の空港の気象観測と天気予報(METAR報とTAF報)

利用可能な観測所は地図上に黄色い丸と赤い丸で示す。

丸の上にカーソルを重ねると観測所名を参照できる。

次にクリックすると気象観測と天気予報を参照できる。

マップの切り替え:黒色「×」印の緑ボタンをクリックして拡大、「-」印の緑ボタンをクリックして縮小、緑色の三角印をクリックして隣りの地図に切り替え


METAR-TAF: